sensor_id;sensor_type;location;lat;lon;timestamp;P1;durP1;ratioP1;P2;durP2;ratioP2
68076;SDS011;54866;53.458;14.540;2022-09-01T00:00:27;1.90;;;0.60;;
68076;SDS011;54866;53.458;14.540;2022-09-01T00:02:58;1.50;;;0.60;;
68076;SDS011;54866;53.458;14.540;2022-09-01T00:05:28;1.70;;;0.60;;
68076;SDS011;54866;53.458;14.540;2022-09-01T00:08:00;1.40;;;0.60;;
68076;SDS011;54866;53.458;14.540;2022-09-01T00:10:30;2.90;;;0.80;;
68076;SDS011;54866;53.458;14.540;2022-09-01T00:13:00;1.70;;;0.70;;
68076;SDS011;54866;53.458;14.540;2022-09-01T00:15:32;1.30;;;0.50;;
68076;SDS011;54866;53.458;14.540;2022-09-01T00:18:03;1.70;;;0.70;;
68076;SDS011;54866;53.458;14.540;2022-09-01T00:20:33;1.10;;;0.80;;
68076;SDS011;54866;53.458;14.540;2022-09-01T00:23:03;1.50;;;0.60;;
68076;SDS011;54866;53.458;14.540;2022-09-01T00:25:32;1.40;;;0.70;;
68076;SDS011;54866;53.458;14.540;2022-09-01T00:28:02;2.20;;;0.60;;
68076;SDS011;54866;53.458;14.540;2022-09-01T00:30:32;2.40;;;0.70;;
68076;SDS011;54866;53.458;14.540;2022-09-01T00:33:02;1.60;;;0.70;;
68076;SDS011;54866;53.458;14.540;2022-09-01T00:35:33;2.00;;;0.60;;
68076;SDS011;54866;53.458;14.540;2022-09-01T00:38:03;1.80;;;0.70;;
68076;SDS011;54866;53.458;14.540;2022-09-01T00:40:33;2.00;;;0.60;;
68076;SDS011;54866;53.458;14.540;2022-09-01T00:43:11;1.90;;;0.60;;
68076;SDS011;54866;53.458;14.540;2022-09-01T00:45:42;1.80;;;0.70;;
68076;SDS011;54866;53.458;14.540;2022-09-01T00:48:12;2.10;;;0.40;;
68076;SDS011;54866;53.458;14.540;2022-09-01T00:50:42;1.10;;;0.50;;
68076;SDS011;54866;53.458;14.540;2022-09-01T00:53:13;2.40;;;0.70;;
68076;SDS011;54866;53.458;14.540;2022-09-01T00:55:42;1.90;;;0.60;;
68076;SDS011;54866;53.458;14.540;2022-09-01T00:58:13;1.40;;;0.80;;
68076;SDS011;54866;53.458;14.540;2022-09-01T01:00:43;1.50;;;0.70;;
68076;SDS011;54866;53.458;14.540;2022-09-01T01:03:15;1.80;;;0.80;;
68076;SDS011;54866;53.458;14.540;2022-09-01T01:05:47;1.70;;;0.70;;
68076;SDS011;54866;53.458;14.540;2022-09-01T01:08:20;3.50;;;1.90;;
68076;SDS011;54866;53.458;14.540;2022-09-01T01:10:59;3.50;;;1.80;;
68076;SDS011;54866;53.458;14.540;2022-09-01T01:13:31;0.80;;;0.50;;
68076;SDS011;54866;53.458;14.540;2022-09-01T01:16:14;2.00;;;0.90;;
68076;SDS011;54866;53.458;14.540;2022-09-01T01:18:44;1.70;;;0.70;;
68076;SDS011;54866;53.458;14.540;2022-09-01T01:21:17;1.30;;;0.70;;
68076;SDS011;54866;53.458;14.540;2022-09-01T01:26:50;2.40;;;1.20;;
68076;SDS011;54866;53.458;14.540;2022-09-01T01:29:23;2.60;;;0.80;;
68076;SDS011;54866;53.458;14.540;2022-09-01T01:31:54;1.60;;;0.80;;
68076;SDS011;54866;53.458;14.540;2022-09-01T01:34:24;1.40;;;0.80;;
68076;SDS011;54866;53.458;14.540;2022-09-01T01:36:54;2.30;;;0.80;;
68076;SDS011;54866;53.458;14.540;2022-09-01T01:39:27;2.70;;;1.30;;
68076;SDS011;54866;53.458;14.540;2022-09-01T01:41:57;1.50;;;0.70;;
68076;SDS011;54866;53.458;14.540;2022-09-01T01:44:27;2.90;;;0.90;;
68076;SDS011;54866;53.458;14.540;2022-09-01T01:46:57;2.20;;;0.60;;
68076;SDS011;54866;53.458;14.540;2022-09-01T01:49:30;1.70;;;0.60;;
68076;SDS011;54866;53.458;14.540;2022-09-01T01:51:59;1.60;;;0.70;;
68076;SDS011;54866;53.458;14.540;2022-09-01T01:54:30;1.60;;;0.70;;
68076;SDS011;54866;53.458;14.540;2022-09-01T01:57:00;1.70;;;0.80;;
68076;SDS011;54866;53.458;14.540;2022-09-01T01:59:30;2.70;;;0.90;;
68076;SDS011;54866;53.458;14.540;2022-09-01T02:02:01;1.80;;;0.60;;
68076;SDS011;54866;53.458;14.540;2022-09-01T02:04:35;2.20;;;0.90;;
68076;SDS011;54866;53.458;14.540;2022-09-01T02:07:09;2.30;;;0.80;;
68076;SDS011;54866;53.458;14.540;2022-09-01T02:09:40;1.80;;;1.10;;
68076;SDS011;54866;53.458;14.540;2022-09-01T02:12:13;1.80;;;0.70;;
68076;SDS011;54866;53.458;14.540;2022-09-01T02:14:45;2.80;;;0.90;;
68076;SDS011;54866;53.458;14.540;2022-09-01T02:17:15;1.90;;;0.80;;
68076;SDS011;54866;53.458;14.540;2022-09-01T02:19:45;2.20;;;1.00;;
68076;SDS011;54866;53.458;14.540;2022-09-01T02:22:15;1.40;;;0.80;;
68076;SDS011;54866;53.458;14.540;2022-09-01T02:24:47;4.80;;;0.90;;
68076;SDS011;54866;53.458;14.540;2022-09-01T02:27:19;1.20;;;0.70;;
68076;SDS011;54866;53.458;14.540;2022-09-01T02:29:51;2.10;;;0.80;;
68076;SDS011;54866;53.458;14.540;2022-09-01T02:32:21;2.50;;;1.10;;
68076;SDS011;54866;53.458;14.540;2022-09-01T02:34:50;2.10;;;1.20;;
68076;SDS011;54866;53.458;14.540;2022-09-01T02:37:26;2.00;;;0.80;;
68076;SDS011;54866;53.458;14.540;2022-09-01T02:39:56;1.80;;;1.10;;
68076;SDS011;54866;53.458;14.540;2022-09-01T02:42:26;2.30;;;0.80;;
68076;SDS011;54866;53.458;14.540;2022-09-01T02:44:56;2.20;;;0.80;;
68076;SDS011;54866;53.458;14.540;2022-09-01T02:47:25;2.40;;;0.80;;
68076;SDS011;54866;53.458;14.540;2022-09-01T02:49:55;1.80;;;0.90;;
68076;SDS011;54866;53.458;14.540;2022-09-01T02:52:27;2.00;;;0.80;;
68076;SDS011;54866;53.458;14.540;2022-09-01T02:55:01;2.10;;;0.70;;
68076;SDS011;54866;53.458;14.540;2022-09-01T02:57:31;1.60;;;0.60;;
68076;SDS011;54866;53.458;14.540;2022-09-01T03:00:04;1.90;;;0.90;;
68076;SDS011;54866;53.458;14.540;2022-09-01T03:02:48;1.40;;;0.90;;
68076;SDS011;54866;53.458;14.540;2022-09-01T03:05:19;2.70;;;1.00;;
68076;SDS011;54866;53.458;14.540;2022-09-01T03:07:54;1.60;;;0.80;;
68076;SDS011;54866;53.458;14.540;2022-09-01T03:10:26;2.00;;;1.30;;
68076;SDS011;54866;53.458;14.540;2022-09-01T03:12:59;2.40;;;1.20;;
68076;SDS011;54866;53.458;14.540;2022-09-01T03:15:32;1.80;;;1.00;;
68076;SDS011;54866;53.458;14.540;2022-09-01T03:18:03;4.10;;;1.50;;
68076;SDS011;54866;53.458;14.540;2022-09-01T03:20:35;3.50;;;2.70;;
68076;SDS011;54866;53.458;14.540;2022-09-01T03:23:09;5.30;;;4.40;;
68076;SDS011;54866;53.458;14.540;2022-09-01T03:25:41;10.10;;;6.30;;
68076;SDS011;54866;53.458;14.540;2022-09-01T03:28:13;10.90;;;9.90;;
68076;SDS011;54866;53.458;14.540;2022-09-01T03:30:44;17.80;;;15.90;;
68076;SDS011;54866;53.458;14.540;2022-09-01T03:33:18;13.20;;;12.00;;
68076;SDS011;54866;53.458;14.540;2022-09-01T03:35:49;15.00;;;13.60;;
68076;SDS011;54866;53.458;14.540;2022-09-01T03:38:19;14.40;;;12.90;;
68076;SDS011;54866;53.458;14.540;2022-09-01T03:40:51;9.50;;;8.50;;
68076;SDS011;54866;53.458;14.540;2022-09-01T03:43:24;9.20;;;6.70;;
68076;SDS011;54866;53.458;14.540;2022-09-01T03:45:55;6.70;;;5.30;;
68076;SDS011;54866;53.458;14.540;2022-09-01T03:48:26;7.20;;;6.50;;
68076;SDS011;54866;53.458;14.540;2022-09-01T03:50:58;7.20;;;6.50;;
68076;SDS011;54866;53.458;14.540;2022-09-01T03:53:29;6.60;;;6.00;;
68076;SDS011;54866;53.458;14.540;2022-09-01T03:56:03;7.60;;;5.80;;
68076;SDS011;54866;53.458;14.540;2022-09-01T03:58:34;6.90;;;6.20;;
68076;SDS011;54866;53.458;14.540;2022-09-01T04:01:04;7.80;;;6.10;;
68076;SDS011;54866;53.458;14.540;2022-09-01T04:03:34;12.20;;;8.70;;
68076;SDS011;54866;53.458;14.540;2022-09-01T04:06:08;17.80;;;16.00;;
68076;SDS011;54866;53.458;14.540;2022-09-01T04:08:38;16.30;;;14.70;;
68076;SDS011;54866;53.458;14.540;2022-09-01T04:11:12;11.70;;;10.60;;
68076;SDS011;54866;53.458;14.540;2022-09-01T04:13:44;11.90;;;10.40;;
68076;SDS011;54866;53.458;14.540;2022-09-01T04:16:17;13.30;;;12.00;;
68076;SDS011;54866;53.458;14.540;2022-09-01T04:19:06;17.50;;;15.70;;
68076;SDS011;54866;53.458;14.540;2022-09-01T04:21:45;18.00;;;16.20;;
68076;SDS011;54866;53.458;14.540;2022-09-01T04:24:17;15.00;;;13.30;;
68076;SDS011;54866;53.458;14.540;2022-09-01T04:26:49;10.90;;;9.80;;
68076;SDS011;54866;53.458;14.540;2022-09-01T04:29:20;10.10;;;8.70;;
68076;SDS011;54866;53.458;14.540;2022-09-01T04:31:53;5.40;;;4.70;;
68076;SDS011;54866;53.458;14.540;2022-09-01T04:34:28;4.30;;;1.90;;
68076;SDS011;54866;53.458;14.540;2022-09-01T04:37:02;3.60;;;1.90;;
68076;SDS011;54866;53.458;14.540;2022-09-01T04:39:38;3.60;;;1.40;;
68076;SDS011;54866;53.458;14.540;2022-09-01T04:42:13;1.90;;;1.70;;
68076;SDS011;54866;53.458;14.540;2022-09-01T04:44:44;2.50;;;1.30;;
68076;SDS011;54866;53.458;14.540;2022-09-01T04:47:14;3.20;;;1.40;;
68076;SDS011;54866;53.458;14.540;2022-09-01T04:49:45;1.80;;;0.80;;
68076;SDS011;54866;53.458;14.540;2022-09-01T04:52:15;2.60;;;0.80;;
68076;SDS011;54866;53.458;14.540;2022-09-01T04:54:45;2.50;;;1.00;;
68076;SDS011;54866;53.458;14.540;2022-09-01T04:57:15;1.90;;;0.90;;
68076;SDS011;54866;53.458;14.540;2022-09-01T04:59:45;2.90;;;1.00;;
68076;SDS011;54866;53.458;14.540;2022-09-01T05:02:15;9.20;;;5.00;;
68076;SDS011;54866;53.458;14.540;2022-09-01T05:04:45;8.40;;;4.50;;
68076;SDS011;54866;53.458;14.540;2022-09-01T05:07:15;5.70;;;3.00;;
68076;SDS011;54866;53.458;14.540;2022-09-01T05:09:45;4.30;;;2.60;;
68076;SDS011;54866;53.458;14.540;2022-09-01T05:12:15;3.80;;;2.20;;
68076;SDS011;54866;53.458;14.540;2022-09-01T05:14:49;5.00;;;1.20;;
68076;SDS011;54866;53.458;14.540;2022-09-01T05:17:19;2.80;;;1.00;;
68076;SDS011;54866;53.458;14.540;2022-09-01T05:19:51;2.20;;;1.30;;
68076;SDS011;54866;53.458;14.540;2022-09-01T05:22:21;4.70;;;1.50;;
68076;SDS011;54866;53.458;14.540;2022-09-01T05:24:52;3.30;;;1.50;;
68076;SDS011;54866;53.458;14.540;2022-09-01T05:27:28;2.10;;;0.90;;
68076;SDS011;54866;53.458;14.540;2022-09-01T05:29:58;3.70;;;1.10;;
68076;SDS011;54866;53.458;14.540;2022-09-01T05:32:34;3.40;;;1.20;;
68076;SDS011;54866;53.458;14.540;2022-09-01T05:35:06;3.40;;;1.40;;
68076;SDS011;54866;53.458;14.540;2022-09-01T05:37:37;3.10;;;1.70;;
68076;SDS011;54866;53.458;14.540;2022-09-01T05:40:09;2.50;;;1.30;;
68076;SDS011;54866;53.458;14.540;2022-09-01T05:42:41;2.30;;;1.20;;
68076;SDS011;54866;53.458;14.540;2022-09-01T05:45:12;3.40;;;1.30;;
68076;SDS011;54866;53.458;14.540;2022-09-01T05:47:48;5.30;;;1.70;;
68076;SDS011;54866;53.458;14.540;2022-09-01T05:50:20;4.20;;;1.70;;
68076;SDS011;54866;53.458;14.540;2022-09-01T05:52:51;5.10;;;1.60;;
68076;SDS011;54866;53.458;14.540;2022-09-01T05:55:21;3.60;;;1.60;;
68076;SDS011;54866;53.458;14.540;2022-09-01T05:57:53;3.30;;;1.80;;
68076;SDS011;54866;53.458;14.540;2022-09-01T06:00:23;4.20;;;1.90;;
68076;SDS011;54866;53.458;14.540;2022-09-01T06:03:00;4.30;;;1.80;;
68076;SDS011;54866;53.458;14.540;2022-09-01T06:05:34;2.70;;;1.40;;
68076;SDS011;54866;53.458;14.540;2022-09-01T06:08:06;3.30;;;1.40;;
68076;SDS011;54866;53.458;14.540;2022-09-01T06:10:39;4.40;;;1.90;;
68076;SDS011;54866;53.458;14.540;2022-09-01T06:13:10;3.80;;;2.00;;
68076;SDS011;54866;53.458;14.540;2022-09-01T06:15:41;5.30;;;2.20;;
68076;SDS011;54866;53.458;14.540;2022-09-01T06:20:44;3.40;;;1.30;;
68076;SDS011;54866;53.458;14.540;2022-09-01T06:23:15;4.80;;;1.60;;
68076;SDS011;54866;53.458;14.540;2022-09-01T06:25:45;5.30;;;1.70;;
68076;SDS011;54866;53.458;14.540;2022-09-01T06:28:16;3.70;;;1.50;;
68076;SDS011;54866;53.458;14.540;2022-09-01T06:30:48;4.40;;;1.50;;
68076;SDS011;54866;53.458;14.540;2022-09-01T06:33:19;4.10;;;2.00;;
68076;SDS011;54866;53.458;14.540;2022-09-01T06:35:50;4.00;;;1.40;;
68076;SDS011;54866;53.458;14.540;2022-09-01T06:38:21;3.60;;;1.50;;
68076;SDS011;54866;53.458;14.540;2022-09-01T06:40:59;5.80;;;1.50;;
68076;SDS011;54866;53.458;14.540;2022-09-01T06:43:30;3.90;;;1.40;;
68076;SDS011;54866;53.458;14.540;2022-09-01T06:46:01;7.60;;;1.80;;
68076;SDS011;54866;53.458;14.540;2022-09-01T06:48:31;3.80;;;1.70;;
68076;SDS011;54866;53.458;14.540;2022-09-01T06:51:01;4.10;;;1.40;;
68076;SDS011;54866;53.458;14.540;2022-09-01T06:53:31;4.20;;;1.90;;
68076;SDS011;54866;53.458;14.540;2022-09-01T06:56:01;5.20;;;1.80;;
68076;SDS011;54866;53.458;14.540;2022-09-01T06:58:31;3.00;;;1.30;;
68076;SDS011;54866;53.458;14.540;2022-09-01T07:01:05;2.60;;;1.20;;
68076;SDS011;54866;53.458;14.540;2022-09-01T07:03:37;6.50;;;1.60;;
68076;SDS011;54866;53.458;14.540;2022-09-01T07:06:07;4.90;;;1.20;;
68076;SDS011;54866;53.458;14.540;2022-09-01T07:08:37;2.50;;;1.40;;
68076;SDS011;54866;53.458;14.540;2022-09-01T07:11:15;1.20;;;0.70;;
68076;SDS011;54866;53.458;14.540;2022-09-01T07:13:53;1.70;;;0.60;;
68076;SDS011;54866;53.458;14.540;2022-09-01T07:16:24;2.40;;;0.70;;
68076;SDS011;54866;53.458;14.540;2022-09-01T07:18:56;1.90;;;0.90;;
68076;SDS011;54866;53.458;14.540;2022-09-01T07:21:28;2.30;;;1.00;;
68076;SDS011;54866;53.458;14.540;2022-09-01T07:23:58;2.20;;;0.90;;
68076;SDS011;54866;53.458;14.540;2022-09-01T07:26:30;1.70;;;0.80;;
68076;SDS011;54866;53.458;14.540;2022-09-01T07:29:02;3.00;;;1.00;;
68076;SDS011;54866;53.458;14.540;2022-09-01T07:34:05;2.50;;;1.10;;
68076;SDS011;54866;53.458;14.540;2022-09-01T07:36:38;3.20;;;1.70;;
68076;SDS011;54866;53.458;14.540;2022-09-01T07:39:11;4.90;;;2.30;;
68076;SDS011;54866;53.458;14.540;2022-09-01T07:41:41;5.40;;;4.10;;
68076;SDS011;54866;53.458;14.540;2022-09-01T07:44:11;8.60;;;7.80;;
68076;SDS011;54866;53.458;14.540;2022-09-01T07:46:41;8.30;;;7.60;;
68076;SDS011;54866;53.458;14.540;2022-09-01T07:49:11;5.80;;;5.20;;
68076;SDS011;54866;53.458;14.540;2022-09-01T07:51:41;3.90;;;3.50;;
68076;SDS011;54866;53.458;14.540;2022-09-01T07:54:17;4.10;;;3.50;;
68076;SDS011;54866;53.458;14.540;2022-09-01T07:56:49;3.60;;;3.20;;
68076;SDS011;54866;53.458;14.540;2022-09-01T07:59:20;3.80;;;3.10;;
68076;SDS011;54866;53.458;14.540;2022-09-01T08:01:53;3.40;;;3.00;;
68076;SDS011;54866;53.458;14.540;2022-09-01T08:04:23;4.60;;;2.90;;
68076;SDS011;54866;53.458;14.540;2022-09-01T08:06:53;2.60;;;2.20;;
68076;SDS011;54866;53.458;14.540;2022-09-01T08:12:25;2.90;;;1.60;;
68076;SDS011;54866;53.458;14.540;2022-09-01T08:14:56;3.50;;;1.60;;
68076;SDS011;54866;53.458;14.540;2022-09-01T08:17:28;3.50;;;1.90;;
68076;SDS011;54866;53.458;14.540;2022-09-01T08:19:57;2.80;;;1.70;;
68076;SDS011;54866;53.458;14.540;2022-09-01T08:22:27;4.50;;;1.60;;
68076;SDS011;54866;53.458;14.540;2022-09-01T08:24:59;2.20;;;1.00;;
68076;SDS011;54866;53.458;14.540;2022-09-01T08:27:30;3.00;;;1.30;;
68076;SDS011;54866;53.458;14.540;2022-09-01T08:30:02;2.40;;;0.90;;
68076;SDS011;54866;53.458;14.540;2022-09-01T08:32:35;2.80;;;0.90;;
68076;SDS011;54866;53.458;14.540;2022-09-01T08:35:08;2.30;;;1.00;;
68076;SDS011;54866;53.458;14.540;2022-09-01T08:37:42;2.00;;;0.80;;
68076;SDS011;54866;53.458;14.540;2022-09-01T08:40:12;1.00;;;0.50;;
68076;SDS011;54866;53.458;14.540;2022-09-01T08:42:48;2.00;;;0.90;;
68076;SDS011;54866;53.458;14.540;2022-09-01T08:45:28;2.00;;;0.80;;
68076;SDS011;54866;53.458;14.540;2022-09-01T08:50:36;3.60;;;2.20;;
68076;SDS011;54866;53.458;14.540;2022-09-01T08:53:08;4.20;;;3.20;;
68076;SDS011;54866;53.458;14.540;2022-09-01T08:55:50;3.60;;;3.20;;
68076;SDS011;54866;53.458;14.540;2022-09-01T08:58:24;4.60;;;3.10;;
68076;SDS011;54866;53.458;14.540;2022-09-01T09:00:58;4.80;;;2.40;;
68076;SDS011;54866;53.458;14.540;2022-09-01T09:03:34;3.40;;;1.90;;
68076;SDS011;54866;53.458;14.540;2022-09-01T09:06:14;2.70;;;1.10;;
68076;SDS011;54866;53.458;14.540;2022-09-01T09:08:55;4.80;;;1.20;;
68076;SDS011;54866;53.458;14.540;2022-09-01T09:11:36;4.20;;;1.60;;
68076;SDS011;54866;53.458;14.540;2022-09-01T09:14:20;4.20;;;1.20;;
68076;SDS011;54866;53.458;14.540;2022-09-01T09:17:01;3.90;;;1.70;;
68076;SDS011;54866;53.458;14.540;2022-09-01T09:19:32;3.50;;;2.60;;
68076;SDS011;54866;53.458;14.540;2022-09-01T09:22:05;5.00;;;3.10;;
68076;SDS011;54866;53.458;14.540;2022-09-01T09:24:39;4.20;;;2.70;;
68076;SDS011;54866;53.458;14.540;2022-09-01T09:27:19;5.70;;;3.30;;
68076;SDS011;54866;53.458;14.540;2022-09-01T09:29:52;5.70;;;2.60;;
68076;SDS011;54866;53.458;14.540;2022-09-01T09:32:24;5.40;;;2.00;;
68076;SDS011;54866;53.458;14.540;2022-09-01T09:35:18;4.30;;;1.70;;
68076;SDS011;54866;53.458;14.540;2022-09-01T09:37:51;2.90;;;1.90;;
68076;SDS011;54866;53.458;14.540;2022-09-01T09:40:21;3.30;;;1.40;;
68076;SDS011;54866;53.458;14.540;2022-09-01T09:43:05;2.90;;;1.00;;
68076;SDS011;54866;53.458;14.540;2022-09-01T09:45:37;1.90;;;0.80;;
68076;SDS011;54866;53.458;14.540;2022-09-01T09:48:09;2.40;;;0.80;;
68076;SDS011;54866;53.458;14.540;2022-09-01T09:50:54;1.30;;;0.60;;
68076;SDS011;54866;53.458;14.540;2022-09-01T09:53:41;1.90;;;0.90;;
68076;SDS011;54866;53.458;14.540;2022-09-01T09:56:16;1.50;;;0.60;;
68076;SDS011;54866;53.458;14.540;2022-09-01T09:58:48;2.30;;;0.80;;
68076;SDS011;54866;53.458;14.540;2022-09-01T10:01:28;1.60;;;0.80;;
68076;SDS011;54866;53.458;14.540;2022-09-01T10:04:00;1.30;;;0.60;;
68076;SDS011;54866;53.458;14.540;2022-09-01T10:06:32;1.80;;;1.00;;
68076;SDS011;54866;53.458;14.540;2022-09-01T10:09:04;1.90;;;0.80;;
68076;SDS011;54866;53.458;14.540;2022-09-01T10:11:37;2.70;;;0.90;;
68076;SDS011;54866;53.458;14.540;2022-09-01T10:14:11;1.80;;;0.60;;
68076;SDS011;54866;53.458;14.540;2022-09-01T10:16:44;2.10;;;1.20;;
68076;SDS011;54866;53.458;14.540;2022-09-01T10:19:18;2.60;;;1.10;;
68076;SDS011;54866;53.458;14.540;2022-09-01T10:21:49;2.30;;;0.60;;
68076;SDS011;54866;53.458;14.540;2022-09-01T10:24:22;2.40;;;0.90;;
68076;SDS011;54866;53.458;14.540;2022-09-01T10:26:58;1.90;;;0.70;;
68076;SDS011;54866;53.458;14.540;2022-09-01T10:29:30;1.80;;;0.70;;
68076;SDS011;54866;53.458;14.540;2022-09-01T10:32:05;2.10;;;0.80;;
68076;SDS011;54866;53.458;14.540;2022-09-01T10:34:39;1.20;;;0.50;;
68076;SDS011;54866;53.458;14.540;2022-09-01T10:37:11;0.90;;;0.40;;
68076;SDS011;54866;53.458;14.540;2022-09-01T10:42:43;1.00;;;0.50;;
68076;SDS011;54866;53.458;14.540;2022-09-01T10:45:30;1.00;;;0.40;;
68076;SDS011;54866;53.458;14.540;2022-09-01T10:54:06;1.20;;;0.50;;
68076;SDS011;54866;53.458;14.540;2022-09-01T10:56:56;1.00;;;0.40;;
68076;SDS011;54866;53.458;14.540;2022-09-01T10:59:28;1.10;;;0.40;;
68076;SDS011;54866;53.458;14.540;2022-09-01T11:02:08;1.30;;;0.40;;
68076;SDS011;54866;53.458;14.540;2022-09-01T11:07:40;1.70;;;0.60;;
68076;SDS011;54866;53.458;14.540;2022-09-01T11:10:15;1.10;;;0.40;;
68076;SDS011;54866;53.458;14.540;2022-09-01T11:13:10;1.30;;;0.30;;
68076;SDS011;54866;53.458;14.540;2022-09-01T11:19:15;0.70;;;0.30;;
68076;SDS011;54866;53.458;14.540;2022-09-01T11:25:09;2.10;;;0.80;;
68076;SDS011;54866;53.458;14.540;2022-09-01T11:27:56;1.20;;;0.60;;
68076;SDS011;54866;53.458;14.540;2022-09-01T11:30:36;2.10;;;0.80;;
68076;SDS011;54866;53.458;14.540;2022-09-01T11:36:23;1.00;;;0.50;;
68076;SDS011;54866;53.458;14.540;2022-09-01T11:39:04;2.30;;;0.50;;
68076;SDS011;54866;53.458;14.540;2022-09-01T11:41:48;1.30;;;0.50;;
68076;SDS011;54866;53.458;14.540;2022-09-01T11:44:23;1.90;;;0.70;;
68076;SDS011;54866;53.458;14.540;2022-09-01T11:46:58;1.50;;;0.90;;
68076;SDS011;54866;53.458;14.540;2022-09-01T11:49:33;1.40;;;0.80;;
68076;SDS011;54866;53.458;14.540;2022-09-01T11:52:05;2.90;;;1.30;;
68076;SDS011;54866;53.458;14.540;2022-09-01T11:54:42;2.30;;;1.30;;
68076;SDS011;54866;53.458;14.540;2022-09-01T11:57:20;2.10;;;1.10;;
68076;SDS011;54866;53.458;14.540;2022-09-01T11:59:53;3.10;;;1.30;;
68076;SDS011;54866;53.458;14.540;2022-09-01T12:02:26;2.40;;;1.00;;
68076;SDS011;54866;53.458;14.540;2022-09-01T12:04:59;2.10;;;1.20;;
68076;SDS011;54866;53.458;14.540;2022-09-01T12:07:36;2.60;;;1.40;;
68076;SDS011;54866;53.458;14.540;2022-09-01T12:10:16;2.30;;;1.10;;
68076;SDS011;54866;53.458;14.540;2022-09-01T12:13:00;1.90;;;0.90;;
68076;SDS011;54866;53.458;14.540;2022-09-01T12:15:32;1.60;;;0.80;;
68076;SDS011;54866;53.458;14.540;2022-09-01T12:18:13;1.50;;;0.50;;
68076;SDS011;54866;53.458;14.540;2022-09-01T12:20:47;2.10;;;0.80;;
68076;SDS011;54866;53.458;14.540;2022-09-01T12:23:23;2.40;;;0.70;;
68076;SDS011;54866;53.458;14.540;2022-09-01T12:25:55;3.00;;;0.90;;
68076;SDS011;54866;53.458;14.540;2022-09-01T12:28:28;2.00;;;0.70;;
68076;SDS011;54866;53.458;14.540;2022-09-01T12:31:00;1.60;;;0.70;;
68076;SDS011;54866;53.458;14.540;2022-09-01T12:38:50;1.40;;;0.50;;
68076;SDS011;54866;53.458;14.540;2022-09-01T12:41:26;1.20;;;0.60;;
68076;SDS011;54866;53.458;14.540;2022-09-01T12:46:56;1.20;;;0.40;;
68076;SDS011;54866;53.458;14.540;2022-09-01T12:49:34;1.10;;;0.50;;
68076;SDS011;54866;53.458;14.540;2022-09-01T12:52:08;1.70;;;0.50;;
68076;SDS011;54866;53.458;14.540;2022-09-01T12:54:40;1.40;;;0.60;;
68076;SDS011;54866;53.458;14.540;2022-09-01T12:57:10;1.30;;;0.60;;
68076;SDS011;54866;53.458;14.540;2022-09-01T13:00:05;1.30;;;0.70;;
68076;SDS011;54866;53.458;14.540;2022-09-01T13:02:48;2.00;;;0.60;;
68076;SDS011;54866;53.458;14.540;2022-09-01T13:05:28;1.20;;;0.40;;
68076;SDS011;54866;53.458;14.540;2022-09-01T13:08:01;2.20;;;0.70;;
68076;SDS011;54866;53.458;14.540;2022-09-01T13:10:34;1.90;;;0.60;;
68076;SDS011;54866;53.458;14.540;2022-09-01T13:13:07;1.70;;;0.50;;
68076;SDS011;54866;53.458;14.540;2022-09-01T13:15:39;2.40;;;0.60;;
68076;SDS011;54866;53.458;14.540;2022-09-01T13:18:10;0.70;;;0.30;;
68076;SDS011;54866;53.458;14.540;2022-09-01T13:20:41;1.90;;;0.50;;
68076;SDS011;54866;53.458;14.540;2022-09-01T13:23:11;0.70;;;0.30;;
68076;SDS011;54866;53.458;14.540;2022-09-01T13:25:42;5.20;;;1.10;;
68076;SDS011;54866;53.458;14.540;2022-09-01T13:28:12;0.80;;;0.40;;
68076;SDS011;54866;53.458;14.540;2022-09-01T13:30:44;2.40;;;1.00;;
68076;SDS011;54866;53.458;14.540;2022-09-01T13:33:18;1.00;;;0.40;;
68076;SDS011;54866;53.458;14.540;2022-09-01T13:35:48;2.40;;;0.50;;
68076;SDS011;54866;53.458;14.540;2022-09-01T13:38:19;2.70;;;0.70;;
68076;SDS011;54866;53.458;14.540;2022-09-01T13:40:50;1.90;;;0.40;;
68076;SDS011;54866;53.458;14.540;2022-09-01T13:43:20;1.20;;;0.60;;
68076;SDS011;54866;53.458;14.540;2022-09-01T13:45:52;1.20;;;0.60;;
68076;SDS011;54866;53.458;14.540;2022-09-01T13:48:22;1.20;;;0.50;;
68076;SDS011;54866;53.458;14.540;2022-09-01T13:50:53;1.00;;;0.40;;
68076;SDS011;54866;53.458;14.540;2022-09-01T13:53:24;3.10;;;1.30;;
68076;SDS011;54866;53.458;14.540;2022-09-01T13:55:54;2.60;;;0.60;;
68076;SDS011;54866;53.458;14.540;2022-09-01T13:58:23;1.50;;;0.40;;
68076;SDS011;54866;53.458;14.540;2022-09-01T14:00:53;1.90;;;0.80;;
68076;SDS011;54866;53.458;14.540;2022-09-01T14:03:25;1.30;;;0.50;;
68076;SDS011;54866;53.458;14.540;2022-09-01T14:05:57;1.50;;;0.50;;
68076;SDS011;54866;53.458;14.540;2022-09-01T14:08:27;1.40;;;0.70;;
68076;SDS011;54866;53.458;14.540;2022-09-01T14:10:58;1.30;;;0.50;;
68076;SDS011;54866;53.458;14.540;2022-09-01T14:13:29;1.70;;;0.60;;
68076;SDS011;54866;53.458;14.540;2022-09-01T14:16:01;1.20;;;0.60;;
68076;SDS011;54866;53.458;14.540;2022-09-01T14:18:37;1.00;;;0.50;;
68076;SDS011;54866;53.458;14.540;2022-09-01T14:21:08;0.90;;;0.40;;
68076;SDS011;54866;53.458;14.540;2022-09-01T14:23:40;1.50;;;0.50;;
68076;SDS011;54866;53.458;14.540;2022-09-01T14:26:12;1.60;;;0.60;;
68076;SDS011;54866;53.458;14.540;2022-09-01T14:28:43;1.80;;;0.70;;
68076;SDS011;54866;53.458;14.540;2022-09-01T14:31:14;1.70;;;0.60;;
68076;SDS011;54866;53.458;14.540;2022-09-01T14:33:45;2.10;;;0.60;;
68076;SDS011;54866;53.458;14.540;2022-09-01T14:36:18;1.40;;;0.50;;
68076;SDS011;54866;53.458;14.540;2022-09-01T14:38:50;1.40;;;0.60;;
68076;SDS011;54866;53.458;14.540;2022-09-01T14:41:21;2.10;;;0.60;;
68076;SDS011;54866;53.458;14.540;2022-09-01T14:43:52;1.30;;;0.50;;
68076;SDS011;54866;53.458;14.540;2022-09-01T14:46:27;1.20;;;0.60;;
68076;SDS011;54866;53.458;14.540;2022-09-01T14:49:00;3.00;;;2.00;;
68076;SDS011;54866;53.458;14.540;2022-09-01T14:51:31;2.90;;;2.10;;
68076;SDS011;54866;53.458;14.540;2022-09-01T14:54:02;2.20;;;0.70;;
68076;SDS011;54866;53.458;14.540;2022-09-01T14:56:33;2.50;;;0.60;;
68076;SDS011;54866;53.458;14.540;2022-09-01T14:59:02;2.10;;;0.70;;
68076;SDS011;54866;53.458;14.540;2022-09-01T15:01:34;1.30;;;0.70;;
68076;SDS011;54866;53.458;14.540;2022-09-01T15:04:04;1.70;;;0.70;;
68076;SDS011;54866;53.458;14.540;2022-09-01T15:06:34;2.90;;;0.60;;
68076;SDS011;54866;53.458;14.540;2022-09-01T15:09:04;2.20;;;0.70;;
68076;SDS011;54866;53.458;14.540;2022-09-01T15:11:34;1.80;;;0.60;;
68076;SDS011;54866;53.458;14.540;2022-09-01T15:14:06;1.60;;;0.70;;
68076;SDS011;54866;53.458;14.540;2022-09-01T15:19:07;1.80;;;0.70;;
68076;SDS011;54866;53.458;14.540;2022-09-01T15:21:39;1.40;;;0.70;;
68076;SDS011;54866;53.458;14.540;2022-09-01T15:24:10;2.00;;;0.70;;
68076;SDS011;54866;53.458;14.540;2022-09-01T15:26:40;1.50;;;0.60;;
68076;SDS011;54866;53.458;14.540;2022-09-01T15:29:10;2.00;;;1.10;;
68076;SDS011;54866;53.458;14.540;2022-09-01T15:31:41;1.50;;;0.70;;
68076;SDS011;54866;53.458;14.540;2022-09-01T15:34:12;1.40;;;0.70;;
68076;SDS011;54866;53.458;14.540;2022-09-01T15:36:43;1.00;;;0.40;;
68076;SDS011;54866;53.458;14.540;2022-09-01T15:39:13;2.50;;;0.70;;
68076;SDS011;54866;53.458;14.540;2022-09-01T15:41:43;1.50;;;0.60;;
68076;SDS011;54866;53.458;14.540;2022-09-01T15:44:13;1.50;;;0.60;;
68076;SDS011;54866;53.458;14.540;2022-09-01T15:46:43;2.10;;;0.80;;
68076;SDS011;54866;53.458;14.540;2022-09-01T15:49:12;3.30;;;0.80;;
68076;SDS011;54866;53.458;14.540;2022-09-01T15:51:44;3.30;;;1.00;;